Time;durP1;ratioP1;P1;durP2;ratioP2;P2;SDS_P1;SDS_P2;PMS_P1;PMS_P2;Temp;Humidity;BMP_temperature;BMP_pressure;BME280_temperature;BME280_humidity;BME280_pressure;Samples;Min_cycle;Max_cycle;Signal;HPM_P1;HPM_P2
2022/04/26 03:36:43;;;;;;;7.80;6.97;;;;;;;1.06;100.00;100721.28;5027094;28;20234;-71
2022/04/26 03:39:10;;;;;;;9.83;7.20;;;;;;;0.99;100.00;100729.75;5029645;28;20243;-71
2022/04/26 03:41:37;;;;;;;9.20;6.87;;;;;;;0.96;100.00;100729.69;5030156;28;20279;-70
2022/04/26 03:44:04;;;;;;;9.73;7.23;;;;;;;1.01;100.00;100728.91;5030101;28;20200;-72
2022/04/26 03:46:30;;;;;;;11.37;7.60;;;;;;;1.16;100.00;100735.09;5028195;28;20746;-71
2022/04/26 03:48:58;;;;;;;11.60;8.03;;;;;;;1.13;100.00;100735.94;5023485;28;20207;-71
2022/04/26 03:51:24;;;;;;;10.57;7.77;;;;;;;1.18;100.00;100738.53;5028550;28;20220;-70
2022/04/26 03:53:51;;;;;;;11.27;7.50;;;;;;;1.01;100.00;100731.47;5029489;28;20197;-70
2022/04/26 03:56:17;;;;;;;9.00;7.33;;;;;;;1.03;100.00;100741.78;5029625;28;20198;-70
2022/04/26 03:58:44;;;;;;;10.33;6.93;;;;;;;1.02;100.00;100743.47;5029872;28;20201;-71
2022/04/26 04:01:10;;;;;;;10.70;7.60;;;;;;;1.13;100.00;100744.50;5037887;28;20210;-71
2022/04/26 04:03:40;;;;;;;10.73;7.47;;;;;;;1.10;100.00;100757.28;5027646;28;20657;-71
2022/04/26 04:06:08;;;;;;;8.70;7.07;;;;;;;1.06;100.00;100760.66;5029947;28;20718;-71
2022/04/26 04:08:34;;;;;;;9.87;6.77;;;;;;;0.93;100.00;100762.19;5033565;28;20219;-71
2022/04/26 04:11:00;;;;;;;10.10;6.90;;;;;;;0.83;100.00;100760.31;5031955;28;20221;-71
2022/04/26 04:13:27;;;;;;;8.93;6.80;;;;;;;0.80;100.00;100767.94;5027874;28;20648;-71
2022/04/26 04:15:53;;;;;;;9.37;7.37;;;;;;;0.79;100.00;100767.91;5029161;28;20214;-71
2022/04/26 04:21:05;;;;;;;8.80;6.67;;;;;;;0.83;100.00;100768.00;5029137;28;20203;-71
2022/04/26 04:23:36;;;;;;;10.90;7.33;;;;;;;0.75;100.00;100767.00;5028128;28;20224;-70
2022/04/26 04:26:02;;;;;;;8.40;6.57;;;;;;;0.71;100.00;100768.66;5026872;28;20295;-71
2022/04/26 04:28:29;;;;;;;10.93;7.13;;;;;;;0.88;100.00;100778.31;5028935;28;20634;-71
2022/04/26 04:30:56;;;;;;;8.30;6.90;;;;;;;0.84;100.00;100774.00;5028380;28;20255;-69
2022/04/26 04:33:22;;;;;;;8.93;6.83;;;;;;;0.87;100.00;100779.19;5031981;28;20743;-71
2022/04/26 04:35:48;;;;;;;8.40;6.93;;;;;;;0.88;100.00;100786.03;5029549;28;20228;-71
2022/04/26 04:38:15;;;;;;;10.17;7.80;;;;;;;0.99;100.00;100776.81;5025028;28;20740;-71
2022/04/26 04:40:43;;;;;;;9.43;8.00;;;;;;;0.99;100.00;100781.09;5028178;28;20208;-69
2022/04/26 04:43:11;;;;;;;11.93;8.03;;;;;;;1.03;100.00;100777.72;5028588;28;20192;-69
2022/04/26 04:45:38;;;;;;;10.10;7.30;;;;;;;0.99;100.00;100783.66;5029446;28;20204;-70
2022/04/26 04:48:06;;;;;;;12.43;8.13;;;;;;;1.03;100.00;100791.41;5029198;28;20227;-71
2022/04/26 04:50:33;;;;;;;10.07;7.43;;;;;;;1.07;100.00;100793.22;5029484;28;20214;-70
2022/04/26 04:52:59;;;;;;;11.07;7.97;;;;;;;1.19;100.00;100796.78;5029946;28;20204;-72
2022/04/26 04:55:26;;;;;;;10.20;7.33;;;;;;;1.37;100.00;100796.19;5034945;28;20229;-71
2022/04/26 04:57:54;;;;;;;12.37;8.40;;;;;;;1.44;100.00;100795.44;5027412;28;20223;-69
2022/04/26 05:00:21;;;;;;;14.50;8.53;;;;;;;1.49;100.00;100796.38;5028528;28;20562;-70
2022/04/26 05:02:47;;;;;;;13.60;9.40;;;;;;;1.65;100.00;100798.31;5028641;28;20201;-71
2022/04/26 05:05:13;;;;;;;19.93;10.43;;;;;;;1.77;100.00;100800.16;5028715;28;20276;-71
2022/04/26 05:07:40;;;;;;;12.87;10.43;;;;;;;1.76;100.00;100813.00;5031146;28;20315;-72
2022/04/26 05:10:08;;;;;;;16.93;9.87;;;;;;;1.84;100.00;100812.25;5031522;28;20203;-71
2022/04/26 05:12:34;;;;;;;18.80;11.13;;;;;;;1.98;100.00;100821.84;5026751;28;20203;-70
2022/04/26 05:15:03;;;;;;;15.70;10.77;;;;;;;2.04;100.00;100820.22;5026210;28;20582;-71
2022/04/26 05:17:30;;;;;;;15.97;11.10;;;;;;;2.11;100.00;100820.28;5026460;28;20980;-71
2022/04/26 05:19:59;;;;;;;16.00;10.90;;;;;;;2.32;100.00;100820.50;5031732;28;20188;-70
2022/04/26 05:22:25;;;;;;;17.63;11.30;;;;;;;2.28;100.00;100817.03;5025131;28;20572;-71
2022/04/26 05:24:54;;;;;;;14.47;10.50;;;;;;;2.27;100.00;100823.06;5029727;28;20216;-70
2022/04/26 05:27:20;;;;;;;19.30;11.13;;;;;;;2.46;100.00;100811.25;5025138;28;20768;-71
2022/04/26 05:29:47;;;;;;;19.17;11.97;;;;;;;2.52;100.00;100813.00;5026628;28;20685;-71
2022/04/26 05:32:19;;;;;;;21.77;12.53;;;;;;;2.64;100.00;100812.28;5026838;28;20257;-72
2022/04/26 05:34:45;;;;;;;21.10;12.97;;;;;;;2.79;100.00;100814.13;5030114;28;20199;-71
2022/04/26 05:37:12;;;;;;;22.17;13.73;;;;;;;2.91;100.00;100810.78;5030655;28;20214;-70
2022/04/26 05:39:40;;;;;;;24.97;14.80;;;;;;;3.03;100.00;100809.16;5035181;28;20234;-71
2022/04/26 05:42:06;;;;;;;25.33;14.83;;;;;;;3.22;100.00;100805.00;5028162;28;20223;-70
2022/04/26 05:44:34;;;;;;;32.67;16.23;;;;;;;3.39;100.00;100810.28;5026793;28;20195;-71
2022/04/26 05:47:02;;;;;;;26.33;16.30;;;;;;;3.51;100.00;100813.78;5032720;28;20235;-70
2022/04/26 05:49:30;;;;;;;30.17;17.10;;;;;;;3.64;100.00;100809.56;5028387;28;20203;-71
2022/04/26 05:51:56;;;;;;;29.63;16.20;;;;;;;3.79;100.00;100812.22;5028572;28;20302;-70
2022/04/26 05:54:23;;;;;;;33.80;18.13;;;;;;;3.92;100.00;100802.81;5026852;28;20202;-70
2022/04/26 05:56:52;;;;;;;32.03;17.37;;;;;;;4.05;100.00;100808.88;5027130;28;20234;-70
2022/04/26 05:59:19;;;;;;;33.60;18.07;;;;;;;4.21;100.00;100805.50;5029191;28;20199;-71
2022/04/26 06:01:46;;;;;;;31.97;18.53;;;;;;;4.42;100.00;100801.25;5029060;28;20200;-72
2022/04/26 06:04:12;;;;;;;36.33;18.70;;;;;;;4.58;100.00;100800.41;5026725;28;20655;-71
2022/04/26 06:06:40;;;;;;;32.87;18.20;;;;;;;4.79;100.00;100809.03;5030394;28;20311;-71
2022/04/26 06:09:07;;;;;;;33.67;17.93;;;;;;;4.95;100.00;100803.00;5026292;28;20617;-70
2022/04/26 06:11:36;;;;;;;29.93;18.00;;;;;;;5.16;100.00;100806.47;5029734;28;20266;-70
2022/04/26 06:14:04;;;;;;;32.10;17.27;;;;;;;5.26;100.00;100805.59;5025818;28;20208;-70
2022/04/26 06:16:33;;;;;;;27.43;16.57;;;;;;;5.46;100.00;100815.88;5026728;28;20311;-70
2022/04/26 06:18:59;;;;;;;26.10;15.80;;;;;;;5.69;100.00;100813.22;5021450;28;20258;-70
2022/04/26 06:21:26;;;;;;;26.23;14.57;;;;;;;5.83;100.00;100814.03;5025569;28;20690;-70
2022/04/26 06:23:54;;;;;;;22.37;12.40;;;;;;;5.98;100.00;100815.75;5025871;28;20672;-71
2022/04/26 06:26:21;;;;;;;19.93;11.43;;;;;;;6.18;100.00;100825.16;5026147;28;20208;-71
2022/04/26 06:28:48;;;;;;;17.33;10.67;;;;;;;6.23;100.00;100829.44;5027537;28;20189;-69
2022/04/26 06:31:15;;;;;;;15.73;10.00;;;;;;;6.36;100.00;100830.22;5025999;28;20777;-71
2022/04/26 06:33:42;;;;;;;16.47;9.17;;;;;;;6.49;100.00;100824.97;5025733;28;20192;-72
2022/04/26 06:36:09;;;;;;;13.67;8.80;;;;;;;6.58;100.00;100825.78;5027318;28;20614;-71
2022/04/26 06:38:38;;;;;;;14.00;8.73;;;;;;;6.62;100.00;100824.91;5029172;28;20228;-71
2022/04/26 06:41:06;;;;;;;14.43;8.37;;;;;;;6.74;100.00;100826.56;5029367;28;20202;-71
2022/04/26 06:43:34;;;;;;;10.23;7.63;;;;;;;6.83;100.00;100831.66;5026671;28;20198;-69
2022/04/26 06:46:01;;;;;;;11.13;7.93;;;;;;;6.92;100.00;100835.91;5028462;28;20204;-71
2022/04/26 06:48:28;;;;;;;10.27;7.50;;;;;;;6.98;100.00;100827.22;5034325;28;20215;-71
2022/04/26 06:50:56;;;;;;;10.17;8.13;;;;;;;7.13;100.00;100834.03;5033746;28;20216;-70
2022/04/26 06:53:23;;;;;;;10.07;7.77;;;;;;;7.25;100.00;100838.25;5029754;28;20678;-71
2022/04/26 06:55:52;;;;;;;12.97;7.50;;;;;;;7.33;100.00;100844.22;5029272;28;20228;-71
2022/04/26 06:58:21;;;;;;;9.67;6.97;;;;;;;7.43;100.00;100845.00;5030699;28;20227;-71
2022/04/26 07:00:48;;;;;;;10.13;6.60;;;;;;;7.49;98.30;100848.41;5031974;28;20211;-71
2022/04/26 07:03:18;;;;;;;9.63;5.80;;;;;;;7.53;98.11;100844.91;5028299;28;20203;-70
2022/04/26 07:05:45;;;;;;;9.37;5.70;;;;;;;7.66;98.70;100845.63;5029393;28;20214;-71
2022/04/26 07:08:12;;;;;;;8.37;5.90;;;;;;;7.70;100.00;100846.44;5029330;28;20216;-71
2022/04/26 07:10:39;;;;;;;6.97;5.53;;;;;;;7.77;98.93;100843.78;5028299;28;20207;-69
2022/04/26 07:13:06;;;;;;;8.27;5.80;;;;;;;7.84;99.50;100848.88;5029534;28;20248;-70
2022/04/26 07:15:34;;;;;;;8.03;6.00;;;;;;;7.88;99.95;100847.97;5031340;28;20199;-69
2022/04/26 07:18:01;;;;;;;9.43;6.33;;;;;;;8.00;100.00;100850.41;5028056;28;20683;-68
2022/04/26 07:20:30;;;;;;;8.67;5.83;;;;;;;8.12;100.00;100845.06;5028846;28;20200;-69
2022/04/26 07:22:57;;;;;;;8.43;6.30;;;;;;;8.12;100.00;100845.06;5028852;28;20203;-71
2022/04/26 07:25:24;;;;;;;8.43;6.37;;;;;;;8.25;95.45;100856.19;5029078;28;20555;-71
2022/04/26 07:27:50;;;;;;;8.90;5.60;;;;;;;8.33;94.07;100863.88;5039116;28;20310;-71
2022/04/26 07:30:17;;;;;;;9.30;5.37;;;;;;;8.41;94.43;100862.03;5031089;28;20249;-71
2022/04/26 07:35:29;;;;;;;6.87;5.17;;;;;;;8.48;93.39;100863.72;5030319;28;20192;-71
2022/04/26 07:38:05;;;;;;;7.93;5.37;;;;;;;8.59;90.16;100871.34;5030621;28;20299;-71
2022/04/26 07:40:32;;;;;;;7.10;5.33;;;;;;;8.59;93.89;100863.56;5034023;28;20222;-71
2022/04/26 07:42:59;;;;;;;7.77;5.40;;;;;;;8.72;94.19;100861.63;5028558;28;20243;-71
2022/04/26 07:45:25;;;;;;;8.50;6.17;;;;;;;8.82;93.24;100867.56;5028227;28;20206;-71
2022/04/26 07:47:53;;;;;;;9.20;5.77;;;;;;;8.91;93.94;100862.22;5030147;28;20221;-70
2022/04/26 07:50:20;;;;;;;6.77;5.03;;;;;;;9.08;88.53;100874.97;5035947;28;20630;-71
2022/04/26 07:52:46;;;;;;;6.57;5.27;;;;;;;9.07;84.55;100883.66;5032327;28;20208;-70
2022/04/26 07:55:13;;;;;;;8.03;5.63;;;;;;;9.09;85.70;100881.88;5033399;28;20210;-70
2022/04/26 07:57:39;;;;;;;7.77;5.30;;;;;;;9.04;86.32;100879.38;5027778;28;20220;-71
2022/04/26 08:00:07;;;;;;;8.73;5.93;;;;;;;9.14;87.55;100882.66;5027606;28;20689;-72
2022/04/26 08:02:39;;;;;;;9.27;6.37;;;;;;;9.25;90.61;100867.75;5031435;28;20592;-71
2022/04/26 08:05:07;;;;;;;7.93;5.60;;;;;;;9.30;86.53;100875.47;5029634;28;20206;-71
2022/04/26 08:07:39;;;;;;;8.33;5.23;;;;;;;9.46;89.22;100876.06;5027826;28;20223;-70
2022/04/26 08:10:07;;;;;;;7.60;5.50;;;;;;;9.57;88.78;100881.06;5035170;28;20300;-70
2022/04/26 08:12:33;;;;;;;8.20;5.60;;;;;;;9.63;87.44;100878.38;5030687;28;20768;-70
2022/04/26 08:15:00;;;;;;;6.43;5.13;;;;;;;9.74;82.75;100889.44;5027551;28;20203;-71
2022/04/26 08:17:26;;;;;;;5.63;4.50;;;;;;;9.89;80.96;100898.72;5027873;28;20213;-71
2022/04/26 08:19:53;;;;;;;5.83;3.80;;;;;;;9.89;77.04;100901.31;5029046;28;20573;-71
2022/04/26 08:22:21;;;;;;;5.30;4.20;;;;;;;9.82;74.87;100910.16;5026454;28;20951;-70
2022/04/26 08:27:33;;;;;;;6.23;4.10;;;;;;;9.86;74.36;100907.44;5027155;28;20230;-71
2022/04/26 08:30:02;;;;;;;6.40;3.80;;;;;;;10.02;79.65;100894.97;5059804;28;20693;-71
2022/04/26 08:32:38;;;;;;;5.83;4.27;;;;;;;10.24;76.28;100908.44;5027346;28;20264;-71
2022/04/26 08:35:06;;;;;;;6.10;4.40;;;;;;;10.39;77.53;100904.69;5031668;28;20202;-71
2022/04/26 08:37:34;;;;;;;6.43;3.87;;;;;;;10.51;75.23;100903.59;5031663;28;20283;-70
2022/04/26 08:40:00;;;;;;;5.20;4.50;;;;;;;10.48;72.46;100908.00;5027939;28;20214;-71
2022/04/26 08:42:37;;;;;;;5.00;3.87;;;;;;;10.43;69.79;100918.53;5027472;28;20203;-71
2022/04/26 08:45:05;;;;;;;5.63;4.27;;;;;;;10.38;69.40;100918.63;5028706;28;20278;-70
2022/04/26 08:53:03;;;;;;;5.43;3.87;;;;;;;10.78;69.11;100912.56;5021968;28;20204;-71
2022/04/26 08:55:31;;;;;;;4.77;4.27;;;;;;;10.79;68.16;100909.03;5028450;28;20697;-70
2022/04/26 08:57:57;;;;;;;8.07;4.03;;;;;;;10.98;68.35;100909.50;5035052;28;20216;-71
2022/04/26 09:00:24;;;;;;;4.50;3.90;;;;;;;11.04;68.12;100913.69;5027364;28;20200;-71
2022/04/26 09:03:07;;;;;;;5.90;3.73;;;;;;;11.29;67.08;100915.72;5028998;28;20757;-71
2022/04/26 09:05:34;;;;;;;5.33;3.80;;;;;;;11.37;66.97;100914.63;5030155;28;20706;-71
2022/04/26 09:08:02;;;;;;;6.67;3.77;;;;;;;11.45;65.16;100911.84;5026808;28;20309;-71
2022/04/26 09:10:30;;;;;;;4.87;4.00;;;;;;;11.31;65.31;100914.81;5035231;28;20279;-70
2022/04/26 09:13:07;;;;;;;4.97;3.27;;;;;;;11.43;63.09;100916.22;5030073;28;20212;-71
2022/04/26 09:15:37;;;;;;;4.30;3.70;;;;;;;11.33;64.16;100914.78;5030472;28;20209;-71
2022/04/26 09:18:15;;;;;;;3.93;3.30;;;;;;;11.47;63.70;100915.28;5029306;28;20618;-70
2022/04/26 09:20:42;;;;;;;4.07;3.47;;;;;;;11.52;66.60;100908.19;5028467;28;20259;-70
2022/04/26 09:23:15;;;;;;;5.10;3.67;;;;;;;11.55;62.58;100910.69;5030902;28;20759;-70
2022/04/26 09:25:43;;;;;;;8.13;4.40;;;;;;;11.52;63.38;100908.19;5028528;28;20869;-71
2022/04/26 09:28:19;;;;;;;4.97;3.70;;;;;;;11.51;62.85;100909.06;5027835;28;20589;-70
2022/04/26 09:30:45;;;;;;;3.87;3.27;;;;;;;11.65;62.35;100907.88;5025948;28;20212;-71
2022/04/26 09:33:11;;;;;;;5.23;3.80;;;;;;;11.77;65.42;100897.09;5027672;28;20228;-71
2022/04/26 09:35:38;;;;;;;5.67;3.90;;;;;;;11.90;67.59;100892.41;5026484;28;20728;-72
2022/04/26 09:38:04;;;;;;;4.97;3.47;;;;;;;11.94;63.82;100904.50;5022216;28;20725;-69
2022/04/26 09:40:32;;;;;;;5.00;2.70;;;;;;;12.12;61.23;100913.59;5025531;28;20208;-70
2022/04/26 09:43:00;;;;;;;5.70;3.30;;;;;;;12.15;60.70;100905.66;5026514;28;20199;-71
2022/04/26 09:45:27;;;;;;;4.93;3.27;;;;;;;12.03;63.26;100900.78;5027940;28;20725;-69
2022/04/26 09:47:59;;;;;;;5.20;3.80;;;;;;;12.22;61.14;100904.59;5026224;28;20225;-71
2022/04/26 09:50:26;;;;;;;5.80;4.30;;;;;;;12.25;62.17;100912.34;5027830;28;20209;-70
2022/04/26 09:52:55;;;;;;;5.50;3.40;;;;;;;12.29;62.30;100911.38;5026563;28;21760;-70
2022/04/26 09:55:21;;;;;;;3.80;3.50;;;;;;;12.42;62.11;100901.41;5025426;28;20253;-71
2022/04/26 09:57:52;;;;;;;3.30;3.00;;;;;;;12.43;59.55;100903.09;5030866;28;20213;-71
2022/04/26 10:00:21;;;;;;;3.97;3.20;;;;;;;12.52;61.86;100901.97;5026539;28;20559;-71
2022/04/26 10:02:54;;;;;;;5.83;4.27;;;;;;;12.66;63.90;100905.06;5027167;28;20203;-71
2022/04/26 10:05:23;;;;;;;4.57;3.60;;;;;;;12.73;63.75;100899.63;5024188;28;20202;-71
2022/04/26 10:07:51;;;;;;;4.17;3.60;;;;;;;12.80;61.16;100906.38;5031592;28;20232;-71
2022/04/26 10:10:19;;;;;;;6.13;3.33;;;;;;;12.95;60.47;100900.69;5021296;28;20210;-70
2022/04/26 10:13:31;;;;;;;4.33;3.30;;;;;;;12.97;60.22;100898.88;5031307;28;20219;-71
2022/04/26 10:15:36;;;;;;;3.67;3.23;;;;;;;12.93;59.74;100910.34;5025622;28;20578;-71
2022/04/26 10:18:25;;;;;;;4.60;3.50;;;;;;;12.94;59.11;100905.94;5025704;28;20214;-70
2022/04/26 10:20:52;;;;;;;4.57;3.90;;;;;;;12.89;61.72;100895.63;5025552;28;20302;-70
2022/04/26 10:23:18;;;;;;;6.10;3.83;;;;;;;12.84;61.25;100898.41;5026746;28;20208;-71
2022/04/26 10:26:24;;;;;;;5.67;3.43;;;;;;;12.94;60.55;100898.09;5026687;28;20217;-71
2022/04/26 10:28:53;;;;;;;4.07;3.30;;;;;;;13.14;60.75;100893.09;5028979;28;20208;-72
2022/04/26 10:31:35;;;;;;;4.20;3.57;;;;;;;13.37;63.11;100897.59;5027948;28;20540;-70
2022/04/26 10:34:03;;;;;;;4.57;3.70;;;;;;;13.61;62.93;100890.69;5034132;28;20206;-72
2022/04/26 10:36:34;;;;;;;5.10;3.63;;;;;;;13.70;58.01;100899.13;5028978;28;20200;-70
2022/04/26 10:39:24;;;;;;;4.07;3.67;;;;;;;13.64;60.53;100897.56;5032432;28;20210;-71
2022/04/26 10:41:51;;;;;;;4.40;3.50;;;;;;;13.71;62.00;100893.81;5030250;28;20219;-72
2022/04/26 10:44:30;;;;;;;4.80;3.50;;;;;;;13.70;57.82;100899.13;5030924;28;20204;-71
2022/04/26 10:47:24;;;;;;;5.20;3.03;;;;;;;13.89;57.34;100901.94;5023650;28;20788;-70
2022/04/26 10:49:51;;;;;;;4.37;3.50;;;;;;;13.85;56.03;100910.84;5029732;28;20805;-70
2022/04/26 10:52:41;;;;;;;4.37;3.37;;;;;;;13.75;59.84;100897.19;5023371;28;20311;-71
2022/04/26 10:55:10;;;;;;;5.37;3.87;;;;;;;13.89;61.33;100886.22;5028094;28;20196;-71
2022/04/26 10:57:39;;;;;;;3.77;3.37;;;;;;;13.90;56.09;100901.06;5026643;28;20302;-70
2022/04/26 11:00:09;;;;;;;3.77;3.30;;;;;;;13.99;56.45;100898.94;5028215;28;20200;-70
2022/04/26 11:02:40;;;;;;;3.77;3.03;;;;;;;14.01;58.43;100897.13;5027562;28;20272;-71
2022/04/26 11:05:10;;;;;;;6.83;3.20;;;;;;;14.23;58.70;100895.47;5028067;28;20204;-71
2022/04/26 11:07:38;;;;;;;5.30;3.87;;;;;;;14.36;54.58;100910.69;5027275;28;20223;-71
2022/04/26 11:10:06;;;;;;;4.63;3.43;;;;;;;14.38;53.61;100903.63;5031777;28;20296;-70
2022/04/26 11:12:36;;;;;;;3.80;3.50;;;;;;;14.30;54.98;100904.81;5031422;28;20582;-71
2022/04/26 11:15:05;;;;;;;5.10;3.77;;;;;;;14.26;53.94;100906.72;5029900;28;20603;-71
2022/04/26 11:17:32;;;;;;;5.33;3.70;;;;;;;14.23;55.80;100898.97;5027929;28;20354;-71
2022/04/26 11:20:01;;;;;;;3.90;3.30;;;;;;;14.31;56.52;100902.16;5027908;28;20255;-71
2022/04/26 11:22:29;;;;;;;3.90;3.50;;;;;;;14.52;58.19;100897.00;5026611;28;20211;-70
2022/04/26 11:28:10;;;;;;;3.97;3.20;;;;;;;14.72;55.30;100901.50;5026485;28;20365;-70
2022/04/26 11:30:38;;;;;;;6.17;3.33;;;;;;;14.87;53.91;100914.03;5026911;28;20204;-71
2022/04/26 11:33:06;;;;;;;4.70;3.30;;;;;;;14.80;53.12;100914.34;5026334;28;20735;-70
2022/04/26 11:35:35;;;;;;;3.77;3.13;;;;;;;14.92;52.48;100913.88;5026226;28;20641;-70
2022/04/26 11:38:08;;;;;;;3.70;3.10;;;;;;;15.08;52.38;100906.25;5021720;28;20234;-70
2022/04/26 11:40:36;;;;;;;3.70;3.03;;;;;;;15.08;52.56;100906.25;5023605;28;20264;-70
2022/04/26 11:43:08;;;;;;;5.67;3.20;;;;;;;15.40;52.64;100906.69;5026137;28;20301;-70
2022/04/26 11:45:36;;;;;;;3.30;3.00;;;;;;;15.48;52.97;100908.06;5025588;28;20219;-71
2022/04/26 11:48:04;;;;;;;4.87;3.20;;;;;;;15.72;51.62;100907.94;5026635;28;20227;-70
2022/04/26 11:50:32;;;;;;;3.43;3.13;;;;;;;15.69;52.12;100902.84;5028098;28;21546;-70
2022/04/26 11:53:03;;;;;;;4.77;3.50;;;;;;;15.81;50.75;100910.22;5023626;28;20734;-70
2022/04/26 11:55:31;;;;;;;4.23;3.10;;;;;;;15.87;52.62;100904.69;5028501;28;20210;-70
2022/04/26 11:58:18;;;;;;;5.67;3.33;;;;;;;16.12;51.11;100911.47;5032528;28;20215;-71
2022/04/26 12:00:57;;;;;;;3.50;3.10;;;;;;;16.22;52.16;100904.88;5025583;28;20209;-70
2022/04/26 12:03:26;;;;;;;3.63;3.10;;;;;;;16.32;52.75;100892.16;5030590;28;20203;-71
2022/04/26 12:05:57;;;;;;;3.10;2.80;;;;;;;16.28;50.71;100893.22;5027793;28;20211;-71
2022/04/26 12:08:26;;;;;;;4.87;3.00;;;;;;;16.34;47.82;100900.84;5028568;28;20749;-71
2022/04/26 12:10:53;;;;;;;3.30;2.93;;;;;;;16.38;48.89;100894.50;5026280;28;20567;-70
2022/04/26 12:13:30;;;;;;;3.00;2.53;;;;;;;16.36;49.24;100888.47;5029363;28;20242;-70
2022/04/26 12:16:13;;;;;;;3.00;2.80;;;;;;;16.60;53.01;100886.50;5027590;28;20199;-70
2022/04/26 12:18:48;;;;;;;4.87;2.83;;;;;;;16.87;52.70;100879.97;5027271;28;20206;-71
2022/04/26 12:21:14;;;;;;;5.20;3.10;;;;;;;16.92;51.71;100878.84;5032642;28;20678;-70
2022/04/26 12:23:42;;;;;;;5.53;3.10;;;;;;;17.08;51.82;100873.69;5026591;28;20192;-70
2022/04/26 12:26:09;;;;;;;3.47;2.93;;;;;;;17.35;49.61;100883.78;5025866;28;20195;-70
2022/04/26 12:28:45;;;;;;;3.73;2.77;;;;;;;17.14;48.78;100880.44;5023405;28;20220;-70
2022/04/26 12:31:21;;;;;;;3.30;2.83;;;;;;;17.16;49.82;100878.56;5028356;28;20573;-71
2022/04/26 12:33:52;;;;;;;4.60;2.90;;;;;;;17.13;47.05;100876.06;5026477;28;20223;-71
2022/04/26 12:36:18;;;;;;;3.67;2.60;;;;;;;17.04;47.44;100880.00;5022013;28;20203;-69
2022/04/26 12:38:50;;;;;;;2.80;2.60;;;;;;;16.90;46.78;100883.31;5023845;28;20214;-70
2022/04/26 12:41:17;;;;;;;3.67;2.93;;;;;;;17.05;48.16;100876.47;5027889;28;20226;-70
2022/04/26 12:43:44;;;;;;;4.13;2.80;;;;;;;17.06;45.82;100872.88;5028863;28;20199;-70
2022/04/26 12:46:11;;;;;;;3.60;3.00;;;;;;;16.99;47.00;100869.72;5022488;28;20215;-70
2022/04/26 12:51:25;;;;;;;3.83;2.90;;;;;;;17.11;46.71;100867.41;5024117;28;20210;-70
2022/04/26 12:53:54;;;;;;;4.57;2.90;;;;;;;17.30;50.23;100856.81;5024044;28;20282;-70
2022/04/26 12:56:25;;;;;;;3.10;2.80;;;;;;;17.55;48.79;100852.00;5024683;28;20208;-71
2022/04/26 12:58:51;;;;;;;3.93;2.40;;;;;;;17.63;45.41;100867.41;5025049;28;20269;-70
2022/04/26 13:01:20;;;;;;;3.10;2.50;;;;;;;17.87;47.06;100867.94;5023734;28;20709;-70
2022/04/26 13:03:47;;;;;;;3.83;2.60;;;;;;;17.73;48.73;100854.56;5019651;28;20287;-70
2022/04/26 13:06:15;;;;;;;2.93;2.40;;;;;;;17.87;48.51;100857.41;5026053;28;20273;-70
2022/04/26 13:08:43;;;;;;;3.23;2.87;;;;;;;18.04;48.20;100856.47;5026632;28;20690;-70
2022/04/26 13:11:12;;;;;;;3.00;2.57;;;;;;;18.09;45.62;100865.00;5025844;28;20211;-70
2022/04/26 13:13:40;;;;;;;2.53;2.30;;;;;;;18.10;44.73;100866.72;5025548;28;20254;-71
2022/04/26 13:16:07;;;;;;;2.87;2.67;;;;;;;18.05;45.31;100862.63;5023173;28;20203;-70
2022/04/26 13:18:34;;;;;;;3.63;2.70;;;;;;;17.77;44.02;100858.78;5021031;28;20251;-70
2022/04/26 13:21:01;;;;;;;49.93;4.53;;;;;;;17.59;46.05;100860.59;5026760;28;20204;-70
2022/04/26 13:23:30;;;;;;;2.93;2.57;;;;;;;17.27;45.01;100855.16;5030425;28;20206;-70
2022/04/26 13:25:58;;;;;;;2.67;2.30;;;;;;;17.01;45.23;100853.84;5024915;28;20200;-71
2022/04/26 13:28:26;;;;;;;5.70;2.63;;;;;;;16.87;44.66;100856.28;5023659;28;20226;-70
2022/04/26 13:30:52;;;;;;;2.90;2.47;;;;;;;16.63;47.02;100853.88;5024784;28;20205;-70
2022/04/26 13:33:18;;;;;;;3.00;2.47;;;;;;;16.62;47.51;100842.53;5022479;28;20224;-70
2022/04/26 13:35:45;;;;;;;2.70;2.50;;;;;;;16.61;48.66;100847.84;5026020;28;20207;-71
2022/04/26 13:38:14;;;;;;;2.33;2.13;;;;;;;16.60;47.60;100852.28;5029269;28;20285;-71
2022/04/26 13:40:42;;;;;;;2.30;1.97;;;;;;;16.45;48.16;100856.47;5025590;28;20269;-70
2022/04/26 13:43:10;;;;;;;2.60;2.40;;;;;;;16.39;47.24;100854.13;5024005;28;20578;-70
2022/04/26 13:45:39;;;;;;;2.57;2.20;;;;;;;16.33;48.46;100841.25;5030351;28;20734;-71
2022/04/26 13:48:09;;;;;;;3.60;2.60;;;;;;;16.17;48.64;100848.16;5024365;28;20706;-70
2022/04/26 13:50:36;;;;;;;3.77;2.30;;;;;;;16.07;47.75;100843.28;5024805;28;20705;-71
2022/04/26 13:53:02;;;;;;;3.00;2.50;;;;;;;15.99;47.61;100847.19;5024815;28;20216;-70
2022/04/26 13:55:30;;;;;;;3.30;2.70;;;;;;;16.00;46.04;100848.91;5025647;28;20203;-70
2022/04/26 13:57:56;;;;;;;2.73;2.27;;;;;;;15.93;45.14;100845.69;5028322;28;20215;-71
2022/04/26 14:00:23;;;;;;;2.80;2.50;;;;;;;15.82;44.56;100845.34;5027916;28;20196;-70
2022/04/26 14:02:51;;;;;;;2.63;2.43;;;;;;;15.78;43.93;100847.25;5030023;28;20675;-70
2022/04/26 14:05:20;;;;;;;10.27;2.40;;;;;;;15.71;44.97;100843.16;5027656;28;20200;-70
2022/04/26 14:07:47;;;;;;;3.80;2.13;;;;;;;15.65;47.87;100844.25;5028316;28;20231;-70
2022/04/26 14:10:14;;;;;;;8.57;2.67;;;;;;;15.73;46.89;100840.47;5028425;28;20207;-71
2022/04/26 14:12:40;;;;;;;2.70;2.43;;;;;;;15.77;46.02;100845.53;5028851;28;20203;-71
2022/04/26 14:23:22;;;;;;;2.40;2.20;;;;;;;15.50;44.01;100848.41;5028459;28;20224;-70
2022/04/26 14:25:48;;;;;;;2.20;2.00;;;;;;;15.54;44.08;100849.13;5028789;28;20196;-70
2022/04/26 14:28:15;;;;;;;2.13;1.93;;;;;;;15.59;44.06;100843.69;5029432;28;20227;-70
2022/04/26 14:30:41;;;;;;;2.60;2.10;;;;;;;15.60;45.47;100843.63;5028420;28;20207;-70
2022/04/26 14:33:09;;;;;;;2.03;1.87;;;;;;;15.60;44.43;100832.25;5030686;28;20304;-70
2022/04/26 14:35:35;;;;;;;3.50;2.13;;;;;;;15.58;44.59;100841.97;5027844;28;20578;-71
2022/04/26 14:38:02;;;;;;;3.80;2.20;;;;;;;15.60;44.19;100845.38;5029302;28;20230;-70
2022/04/26 14:40:29;;;;;;;2.40;2.10;;;;;;;15.48;43.20;100842.38;5027070;28;20210;-71
2022/04/26 14:42:56;;;;;;;3.33;2.10;;;;;;;15.50;43.56;100852.84;5030687;28;20207;-70
2022/04/26 14:45:22;;;;;;;2.93;2.30;;;;;;;15.40;45.59;100841.84;5028924;28;20800;-70
2022/04/26 14:47:49;;;;;;;2.53;2.33;;;;;;;15.20;45.61;100836.59;5022626;28;20614;-71
2022/04/26 14:50:18;;;;;;;3.20;2.60;;;;;;;15.14;46.32;100840.31;5024898;28;20291;-70
2022/04/26 14:52:45;;;;;;;2.90;2.60;;;;;;;15.07;46.31;100844.13;5020599;28;20203;-70
2022/04/26 14:55:11;;;;;;;2.80;2.43;;;;;;;15.11;46.80;100843.09;5022627;28;20199;-70
2022/04/26 14:57:38;;;;;;;4.63;2.50;;;;;;;15.01;46.89;100841.75;5019873;28;20278;-70
2022/04/26 15:00:06;;;;;;;3.07;2.47;;;;;;;14.99;47.40;100849.69;5019100;28;20205;-70
2022/04/26 15:02:38;;;;;;;3.07;2.77;;;;;;;14.99;47.69;100838.34;5021253;28;20207;-70
2022/04/26 15:05:07;;;;;;;3.03;2.73;;;;;;;14.99;49.67;100838.34;5027121;28;20222;-70
2022/04/26 15:09:42;;;;;;;6.83;3.00;;;;;;;14.93;48.81;100845.56;5022353;28;20277;-71
2022/04/26 15:10:23;;;;;;;3.10;2.80;;;;;;;14.89;49.22;100848.34;5026326;28;20211;-70
2022/04/26 15:18:18;;;;;;;6.33;2.80;;;;;;;14.63;49.46;100846.78;5026442;28;20314;-70
2022/04/26 15:20:46;;;;;;;3.80;2.97;;;;;;;14.66;50.06;100846.66;5027980;28;20216;-70
2022/04/26 15:23:15;;;;;;;2.67;2.40;;;;;;;14.58;49.75;100847.81;5028672;28;20262;-70
2022/04/26 15:25:41;;;;;;;2.40;2.20;;;;;;;14.46;49.75;100856.13;5026176;28;20204;-70
2022/04/26 15:28:08;;;;;;;2.83;2.53;;;;;;;14.44;49.34;100852.72;5027018;28;20234;-71
2022/04/26 15:30:42;;;;;;;3.93;2.60;;;;;;;14.47;49.76;100855.22;5026481;28;20290;-70
2022/04/26 15:33:09;;;;;;;2.90;2.43;;;;;;;14.44;48.97;100859.72;5026433;28;20270;-71
2022/04/26 15:35:36;;;;;;;4.67;2.80;;;;;;;14.39;50.54;100857.28;5024225;28;20208;-70
2022/04/26 15:38:03;;;;;;;3.00;2.70;;;;;;;14.36;50.71;100850.38;5025816;28;20237;-70
2022/04/26 15:40:30;;;;;;;3.77;2.57;;;;;;;14.31;50.01;100851.47;5023045;28;20212;-71